createdAt,value
2023-07-11T00:00:23.327Z,94141.47
2023-07-11T00:01:19.968Z,94133.41
2023-07-11T00:02:16.937Z,94109.75
2023-07-11T00:03:13.741Z,94134.50
2023-07-11T00:04:10.621Z,94148.06
2023-07-11T00:05:08.801Z,94148.69
2023-07-11T00:06:08.747Z,94148.47
2023-07-11T00:07:05.767Z,94145.41
2023-07-11T00:08:02.398Z,94149.78
2023-07-11T00:08:59.150Z,94153.72
2023-07-11T00:09:55.812Z,94150.06
2023-07-11T00:10:52.496Z,94154.94
2023-07-11T00:11:49.102Z,94150.91
2023-07-11T00:12:45.818Z,94143.69
2023-07-11T00:13:42.521Z,94147.00
2023-07-11T00:14:39.167Z,94148.84
2023-07-11T00:15:35.827Z,94106.59
2023-07-11T00:16:32.525Z,94148.63
2023-07-11T00:17:29.641Z,94153.22
2023-07-11T00:18:26.316Z,94158.09
2023-07-11T00:19:23.106Z,94157.28
2023-07-11T00:20:20.414Z,94155.34
2023-07-11T00:21:17.049Z,94144.16
2023-07-11T00:22:13.933Z,94152.22
2023-07-11T00:23:10.706Z,94127.69
2023-07-11T00:24:08.011Z,94150.53
2023-07-11T00:25:06.020Z,94154.03
2023-07-11T00:26:02.853Z,94150.59
2023-07-11T00:26:59.472Z,94155.25
2023-07-11T00:27:56.154Z,94160.28
2023-07-11T00:28:52.742Z,94155.97
2023-07-11T00:29:49.451Z,94155.53
2023-07-11T00:30:46.220Z,94117.97
2023-07-11T00:31:42.909Z,94150.84
2023-07-11T00:32:39.797Z,94155.03
2023-07-11T00:33:36.521Z,94169.50
2023-07-11T00:34:33.315Z,94153.44
2023-07-11T00:35:29.932Z,94148.09
2023-07-11T00:36:26.517Z,94165.81
2023-07-11T00:37:23.273Z,94118.75
2023-07-11T00:38:21.191Z,94146.59
2023-07-11T00:39:17.813Z,94146.47
2023-07-11T00:40:14.474Z,94144.63
2023-07-11T00:41:11.104Z,94137.22
2023-07-11T00:42:09.357Z,94133.75
2023-07-11T00:43:06.479Z,94134.50
2023-07-11T00:44:03.158Z,94126.78
2023-07-11T00:45:05.364Z,94135.78
2023-07-11T00:46:07.993Z,94135.78
2023-07-11T00:47:05.434Z,94137.38
2023-07-11T00:48:02.556Z,94133.16
2023-07-11T00:49:01.556Z,94119.09
2023-07-11T00:50:03.719Z,94132.28
2023-07-11T00:51:01.306Z,94133.53
2023-07-11T00:52:02.311Z,94132.78
2023-07-11T00:52:58.988Z,94132.31
2023-07-11T00:53:56.129Z,94135.44
2023-07-11T00:54:58.127Z,94135.91
2023-07-11T00:55:58.826Z,94133.31
2023-07-11T00:56:57.717Z,94133.09
2023-07-11T00:57:54.499Z,94133.38
2023-07-11T00:58:52.358Z,94134.19
2023-07-11T00:59:49.613Z,94129.78
2023-07-11T01:00:46.933Z,94136.66
2023-07-11T01:01:48.266Z,94137.66
2023-07-11T01:02:44.966Z,94147.41
2023-07-11T01:03:41.923Z,94140.94
2023-07-11T01:04:40.070Z,94124.09
2023-07-11T01:05:38.309Z,94145.50
2023-07-11T01:06:35.530Z,94130.81
2023-07-11T01:07:35.580Z,94134.88
2023-07-11T01:08:32.310Z,94136.44
2023-07-11T01:09:29.539Z,94129.84
2023-07-11T01:10:26.287Z,94108.06
2023-07-11T01:11:26.327Z,94131.72
2023-07-11T01:12:23.144Z,94132.34
2023-07-11T01:13:19.779Z,94137.53
2023-07-11T01:14:16.605Z,94134.03
2023-07-11T01:15:13.468Z,94137.16
2023-07-11T01:16:10.704Z,94111.88
2023-07-11T01:17:24.813Z,94126.41
2023-07-11T01:18:21.494Z,94114.94
2023-07-11T01:19:18.324Z,94122.78
2023-07-11T01:20:14.995Z,94114.56
2023-07-11T01:21:17.559Z,94127.38
2023-07-11T01:22:14.062Z,94119.00
2023-07-11T01:23:11.250Z,94123.00
2023-07-11T01:24:08.404Z,94123.84
2023-07-11T01:25:11.380Z,94122.28
2023-07-11T01:26:09.447Z,94088.19
2023-07-11T01:27:06.346Z,94121.81
2023-07-11T01:28:03.098Z,94116.34
2023-07-11T01:29:00.022Z,94116.22
2023-07-11T01:29:56.688Z,94109.38
2023-07-11T01:30:53.356Z,94118.66
2023-07-11T01:31:50.048Z,94126.00
2023-07-11T01:32:47.242Z,94121.16
2023-07-11T01:33:44.042Z,94119.69
2023-07-11T01:34:40.776Z,94115.53
2023-07-11T01:35:37.447Z,94116.63
2023-07-11T01:36:35.117Z,94116.63
2023-07-11T01:37:32.190Z,94119.81
2023-07-11T01:38:28.894Z,94113.97
2023-07-11T01:39:25.589Z,94123.06
2023-07-11T01:40:22.593Z,94088.06
2023-07-11T01:41:19.469Z,94117.53
2023-07-11T01:42:16.903Z,94120.38
2023-07-11T01:43:13.759Z,94117.31
2023-07-11T01:44:12.242Z,94111.22
2023-07-11T01:45:11.056Z,94114.31
2023-07-11T01:46:07.907Z,94114.72
2023-07-11T01:47:05.580Z,94121.53
2023-07-11T01:48:02.309Z,94116.00
2023-07-11T01:48:58.985Z,94120.38
2023-07-11T01:49:55.617Z,94124.63
2023-07-11T01:50:52.810Z,94115.09
2023-07-11T01:51:49.452Z,94127.91
2023-07-11T01:52:46.101Z,94125.75
2023-07-11T01:53:42.771Z,94124.22
2023-07-11T01:54:39.397Z,94126.06
2023-07-11T01:55:36.033Z,94123.22
2023-07-11T01:56:32.634Z,94121.56
2023-07-11T01:57:29.297Z,94117.50
2023-07-11T01:58:25.968Z,94117.94
2023-07-11T01:59:22.647Z,94120.63
2023-07-11T02:00:19.403Z,94108.94
2023-07-11T02:01:16.256Z,94116.34
2023-07-11T02:02:13.435Z,94080.53
2023-07-11T02:03:10.847Z,94111.63
2023-07-11T02:04:08.161Z,94115.09
2023-07-11T02:05:05.124Z,94101.91
2023-07-11T02:06:01.795Z,94099.13
2023-07-11T02:06:58.389Z,94110.84
2023-07-11T02:07:55.059Z,94093.97
2023-07-11T02:08:52.586Z,94112.41
2023-07-11T02:09:49.398Z,94108.28
2023-07-11T02:10:46.379Z,94092.09
2023-07-11T02:11:43.484Z,94109.38
2023-07-11T02:12:40.153Z,94076.72
2023-07-11T02:13:36.841Z,94117.31
2023-07-11T02:14:33.615Z,94116.97
2023-07-11T02:15:30.311Z,94115.78
2023-07-11T02:16:27.105Z,94117.13
2023-07-11T02:17:23.958Z,94122.22
2023-07-11T02:18:20.865Z,94114.94
2023-07-11T02:19:20.013Z,94113.75
2023-07-11T02:20:16.978Z,94119.50
2023-07-11T02:21:13.714Z,94116.47
2023-07-11T02:22:10.406Z,94109.38
2023-07-11T02:23:07.037Z,94120.78
2023-07-11T02:24:04.303Z,94111.72
2023-07-11T02:25:00.946Z,94119.47
2023-07-11T02:25:57.590Z,94118.41
2023-07-11T02:26:54.222Z,94121.59
2023-07-11T02:27:50.874Z,94123.31
2023-07-11T02:28:47.518Z,94128.53
2023-07-11T02:29:44.342Z,94116.72
2023-07-11T02:30:41.960Z,94117.81
2023-07-11T02:31:38.992Z,94115.44
2023-07-11T02:32:36.322Z,94114.31
2023-07-11T02:33:32.978Z,94110.06
2023-07-11T02:34:29.592Z,94117.34
2023-07-11T02:35:26.259Z,94116.03
2023-07-11T02:36:22.887Z,94111.44
2023-07-11T02:37:19.478Z,94112.56
2023-07-11T02:38:16.141Z,94119.88
2023-07-11T02:39:13.349Z,94111.00
2023-07-11T02:40:10.535Z,94111.81
2023-07-11T02:41:07.247Z,94118.72
2023-07-11T02:42:04.483Z,94094.38
2023-07-11T02:43:01.155Z,94120.66
2023-07-11T02:43:58.719Z,94121.41
2023-07-11T02:44:55.385Z,94122.09
2023-07-11T02:45:52.591Z,94117.06
2023-07-11T02:46:49.428Z,94119.88
2023-07-11T02:47:46.062Z,94119.22
2023-07-11T02:48:43.995Z,94094.44
2023-07-11T02:49:42.307Z,94118.44
2023-07-11T02:50:39.054Z,94108.84
2023-07-11T02:51:40.641Z,94122.56
2023-07-11T02:52:38.148Z,94116.97
2023-07-11T02:53:34.801Z,94111.66
2023-07-11T02:54:31.448Z,94114.34
2023-07-11T02:55:28.053Z,94111.97
2023-07-11T02:56:24.826Z,94105.81
2023-07-11T02:57:21.560Z,94078.03
2023-07-11T02:58:18.310Z,94102.53
2023-07-11T02:59:14.955Z,94109.63
2023-07-11T03:00:12.539Z,94079.59
2023-07-11T03:01:09.527Z,94100.69
2023-07-11T03:02:06.559Z,94111.00
2023-07-11T03:03:04.041Z,94120.72
2023-07-11T03:04:01.026Z,94108.59
2023-07-11T03:04:57.753Z,94117.25
2023-07-11T03:05:55.767Z,94096.22
2023-07-11T03:06:57.559Z,94103.19
2023-07-11T03:07:54.248Z,94123.22
2023-07-11T03:08:50.910Z,94123.47
2023-07-11T03:09:47.584Z,94123.22
2023-07-11T03:10:44.658Z,94119.25
2023-07-11T03:11:42.703Z,94117.38
2023-07-11T03:12:39.642Z,94119.75
2023-07-11T03:13:36.324Z,94113.91
2023-07-11T03:14:33.017Z,94126.53
2023-07-11T03:15:29.733Z,94127.53
2023-07-11T03:16:26.476Z,94129.44
2023-07-11T03:17:23.418Z,94115.16
2023-07-11T03:18:20.261Z,94125.91
2023-07-11T03:19:16.934Z,94115.84
2023-07-11T03:20:13.565Z,94126.88
2023-07-11T03:21:10.179Z,94125.09
2023-07-11T03:22:06.986Z,94125.56
2023-07-11T03:23:03.772Z,94124.13
2023-07-11T03:24:00.375Z,94124.44
2023-07-11T03:24:57.030Z,94130.09
2023-07-11T03:25:54.241Z,94127.47
2023-07-11T03:26:50.975Z,94126.81
2023-07-11T03:27:47.664Z,94126.28
2023-07-11T03:28:44.425Z,94129.69
2023-07-11T03:29:41.248Z,94128.13
2023-07-11T03:30:37.943Z,94130.34
2023-07-11T03:31:34.704Z,94134.88
2023-07-11T03:32:32.294Z,94126.34
2023-07-11T03:33:28.951Z,94121.03
2023-07-11T03:34:25.617Z,94127.66
2023-07-11T03:35:22.290Z,94128.91
2023-07-11T03:36:20.076Z,94129.69
2023-07-11T03:37:16.766Z,94138.16
2023-07-11T03:38:13.390Z,94126.59
2023-07-11T03:39:10.070Z,94125.03
2023-07-11T03:40:07.373Z,94134.69
2023-07-11T03:41:04.907Z,94094.16
2023-07-11T03:42:01.578Z,94124.31
2023-07-11T03:42:58.360Z,94133.66
2023-07-11T03:43:55.033Z,94123.66
2023-07-11T03:44:51.647Z,94122.88
2023-07-11T03:45:50.221Z,94128.25
2023-07-11T03:46:47.494Z,94122.53
2023-07-11T03:47:44.273Z,94134.50
2023-07-11T03:48:40.929Z,94123.81
2023-07-11T03:49:37.782Z,94126.97
2023-07-11T03:50:34.442Z,94121.72
2023-07-11T03:51:31.165Z,94135.72
2023-07-11T03:52:27.805Z,94128.72
2023-07-11T03:53:25.578Z,94128.22
2023-07-11T03:54:24.729Z,94126.34
2023-07-11T03:55:21.451Z,94125.22
2023-07-11T03:56:18.174Z,94134.09
2023-07-11T03:57:14.770Z,94131.03
2023-07-11T03:58:11.983Z,94114.16
2023-07-11T03:59:08.686Z,94129.09
2023-07-11T04:00:06.002Z,94051.63
2023-07-11T04:01:02.654Z,94127.91
2023-07-11T04:01:59.321Z,94107.59
2023-07-11T04:02:56.074Z,94113.81
2023-07-11T04:03:53.592Z,94132.78
2023-07-11T04:04:50.360Z,94132.06
2023-07-11T04:05:47.315Z,94139.81
2023-07-11T04:06:44.012Z,94132.22
2023-07-11T04:07:40.682Z,94080.84
2023-07-11T04:08:37.604Z,94132.53
2023-07-11T04:09:34.446Z,94129.97
2023-07-11T04:10:32.433Z,94128.81
2023-07-11T04:11:29.106Z,94103.28
2023-07-11T04:12:25.780Z,94123.78
2023-07-11T04:13:22.631Z,94130.28
2023-07-11T04:14:19.400Z,94128.03
2023-07-11T04:15:16.229Z,94136.41
2023-07-11T04:16:12.922Z,94116.34
2023-07-11T04:17:09.660Z,94120.59
2023-07-11T04:18:06.554Z,94112.53
2023-07-11T04:19:03.816Z,94138.13
2023-07-11T04:20:00.647Z,94144.28
2023-07-11T04:20:57.382Z,94140.34
2023-07-11T04:21:54.087Z,94140.03
2023-07-11T04:22:50.769Z,94148.63
2023-07-11T04:23:48.742Z,94146.31
2023-07-11T04:24:45.391Z,94150.59
2023-07-11T04:25:42.069Z,94154.91
2023-07-11T04:26:38.930Z,94154.59
2023-07-11T04:27:36.718Z,94157.38
2023-07-11T04:28:33.346Z,94155.50
2023-07-11T04:29:30.019Z,94156.72
2023-07-11T04:30:26.663Z,94153.78
2023-07-11T04:31:25.435Z,94155.72
2023-07-11T04:32:22.617Z,94145.34
2023-07-11T04:33:19.457Z,94154.13
2023-07-11T04:34:16.270Z,94157.84
2023-07-11T04:35:15.843Z,94165.59
2023-07-11T04:36:15.353Z,94159.63
2023-07-11T04:37:12.049Z,94159.38
2023-07-11T04:38:08.723Z,94155.66
2023-07-11T04:39:05.393Z,94160.78
2023-07-11T04:40:02.058Z,94160.06
2023-07-11T04:41:03.627Z,94133.13
2023-07-11T04:42:00.284Z,94158.00
2023-07-11T04:42:59.647Z,94163.41
2023-07-11T04:43:56.319Z,94166.75
2023-07-11T04:44:52.953Z,94160.63
2023-07-11T04:45:49.568Z,94169.88
2023-07-11T04:46:46.325Z,94168.00
2023-07-11T04:47:44.424Z,94158.34
2023-07-11T04:48:43.234Z,94164.59
2023-07-11T04:49:39.970Z,94156.59
2023-07-11T04:50:36.640Z,94161.97
2023-07-11T04:51:33.327Z,94155.75
2023-07-11T04:52:30.034Z,94163.13
2023-07-11T04:53:27.857Z,94140.81
2023-07-11T04:54:26.870Z,94155.19
2023-07-11T04:55:24.040Z,94159.78
2023-07-11T04:56:20.783Z,94159.00
2023-07-11T04:57:17.493Z,94160.19
2023-07-11T04:58:14.139Z,94158.25
2023-07-11T04:59:10.792Z,94048.53
2023-07-11T05:00:08.082Z,94158.31
2023-07-11T05:01:11.429Z,94163.69
2023-07-11T05:02:08.265Z,94165.22
2023-07-11T05:03:05.021Z,94157.13
2023-07-11T05:04:01.868Z,94164.13
2023-07-11T05:04:58.528Z,94162.66
2023-07-11T05:05:55.764Z,94162.28
2023-07-11T05:06:52.490Z,94164.97
2023-07-11T05:07:49.236Z,94161.09
2023-07-11T05:08:45.881Z,94158.03
2023-07-11T05:09:57.110Z,94158.06
2023-07-11T05:11:02.635Z,94155.00
2023-07-11T05:12:01.505Z,94149.22
2023-07-11T05:12:58.115Z,94158.16
2023-07-11T05:13:54.828Z,94161.25
2023-07-11T05:14:51.502Z,94163.22
2023-07-11T05:15:48.223Z,94160.13
2023-07-11T05:16:44.990Z,94168.25
2023-07-11T05:17:41.657Z,94164.78
2023-07-11T05:18:44.764Z,94158.63
2023-07-11T05:19:42.192Z,94166.34
2023-07-11T05:20:39.693Z,94136.56
2023-07-11T05:21:36.321Z,94159.78
2023-07-11T05:22:32.965Z,94165.53
2023-07-11T05:23:31.449Z,94166.31
2023-07-11T05:24:28.233Z,94164.41
2023-07-11T05:25:24.893Z,94163.25
2023-07-11T05:26:21.537Z,94170.56
2023-07-11T05:27:18.202Z,94167.13
2023-07-11T05:28:15.745Z,94167.09
2023-07-11T05:29:12.396Z,94176.78
2023-07-11T05:30:09.973Z,94177.88
2023-07-11T05:31:08.060Z,94172.19
2023-07-11T05:32:05.245Z,94181.47
2023-07-11T05:33:02.076Z,94170.25
2023-07-11T05:33:58.889Z,94179.91
2023-07-11T05:34:55.978Z,94165.59
2023-07-11T05:36:26.621Z,94177.97
2023-07-11T05:37:23.364Z,94177.56
2023-07-11T05:38:19.943Z,94177.59
2023-07-11T05:39:17.162Z,94134.75
2023-07-11T05:40:15.013Z,94157.13
2023-07-11T05:41:11.624Z,94169.47
2023-07-11T05:42:08.315Z,94167.94
2023-07-11T05:43:04.989Z,94176.47
2023-07-11T05:44:02.486Z,94175.63
2023-07-11T05:44:59.168Z,94182.63
2023-07-11T05:45:55.854Z,94185.69
2023-07-11T05:46:52.697Z,94179.47
2023-07-11T05:47:49.346Z,94189.09
2023-07-11T05:48:45.966Z,94161.66
2023-07-11T05:49:44.842Z,94180.16
2023-07-11T05:50:41.432Z,94183.59
2023-07-11T05:51:38.200Z,94186.69
2023-07-11T05:52:34.895Z,94185.59
2023-07-11T05:53:31.634Z,94180.94
2023-07-11T05:54:28.192Z,94171.31
2023-07-11T05:55:24.885Z,94153.94
2023-07-11T05:56:22.037Z,94173.91
2023-07-11T05:57:18.664Z,94175.44
2023-07-11T05:58:15.267Z,94171.88
2023-07-11T05:59:11.900Z,94179.63
2023-07-11T06:00:10.836Z,94173.94
2023-07-11T06:01:07.654Z,94180.50
2023-07-11T06:02:04.733Z,94182.91
2023-07-11T06:03:02.737Z,94180.94
2023-07-11T06:04:14.111Z,94187.13
2023-07-11T06:05:10.933Z,94140.38
2023-07-11T06:06:10.117Z,94186.66
2023-07-11T06:07:06.970Z,94184.34
2023-07-11T06:08:03.761Z,94185.13
2023-07-11T06:09:00.356Z,94179.63
2023-07-11T06:09:57.533Z,94187.97
2023-07-11T06:10:58.574Z,94180.28
2023-07-11T06:11:55.440Z,94171.44
2023-07-11T06:12:52.214Z,94182.06
2023-07-11T06:13:48.921Z,94191.56
2023-07-11T06:14:45.588Z,94187.53
2023-07-11T06:15:42.650Z,94191.28
2023-07-11T06:16:40.996Z,94189.19
2023-07-11T06:17:37.746Z,94185.75
2023-07-11T06:18:37.155Z,94185.41
2023-07-11T06:19:33.808Z,94186.84
2023-07-11T06:20:30.502Z,94180.38
2023-07-11T06:21:27.216Z,94190.13
2023-07-11T06:22:24.224Z,94187.03
2023-07-11T06:23:21.139Z,94163.91
2023-07-11T06:24:17.849Z,94193.59
2023-07-11T06:25:14.545Z,94193.03
2023-07-11T06:26:11.513Z,94186.69
2023-07-11T06:27:08.149Z,94181.75
2023-07-11T06:28:05.016Z,94178.31
2023-07-11T06:29:01.622Z,94184.44
2023-07-11T06:29:58.338Z,94186.94
2023-07-11T06:31:02.064Z,94190.56
2023-07-11T06:31:59.108Z,94158.53
2023-07-11T06:32:55.799Z,94183.16
2023-07-11T06:33:52.623Z,94181.31
2023-07-11T06:34:49.223Z,94180.28
2023-07-11T06:35:52.233Z,94185.03
2023-07-11T06:36:48.976Z,94146.09
2023-07-11T06:37:45.543Z,94172.59
2023-07-11T06:38:42.239Z,94172.88
2023-07-11T06:39:39.313Z,94176.75
2023-07-11T06:40:38.829Z,94177.53
2023-07-11T06:41:36.530Z,94182.81
2023-07-11T06:42:33.292Z,94184.22
2023-07-11T06:43:31.073Z,94184.22
2023-07-11T06:44:27.834Z,94166.84
2023-07-11T06:45:26.178Z,94188.25
2023-07-11T06:46:25.346Z,94184.78
2023-07-11T06:47:22.019Z,94179.03
2023-07-11T06:48:19.849Z,94177.94
2023-07-11T06:49:16.562Z,94169.81
2023-07-11T06:50:13.364Z,94178.50
2023-07-11T06:51:11.241Z,94172.56
2023-07-11T06:52:08.299Z,94159.69
2023-07-11T06:53:04.967Z,94171.56
2023-07-11T06:54:01.685Z,94157.94
2023-07-11T06:54:58.393Z,94162.41
2023-07-11T06:55:55.362Z,94172.06
2023-07-11T06:56:53.485Z,94174.16
2023-07-11T06:57:50.205Z,94150.00
2023-07-11T06:58:46.938Z,94178.47
2023-07-11T06:59:43.572Z,94175.31
2023-07-11T07:00:40.206Z,94174.13
2023-07-11T07:01:38.819Z,94151.44
2023-07-11T07:02:35.966Z,94182.34
2023-07-11T07:03:34.001Z,94181.34
2023-07-11T07:04:30.902Z,94157.09
2023-07-11T07:05:27.648Z,94166.47
2023-07-11T07:06:24.407Z,94171.53
2023-07-11T07:07:20.995Z,94178.00
2023-07-11T07:08:19.378Z,94174.84
2023-07-11T07:09:16.064Z,94169.56
2023-07-11T07:10:12.856Z,94172.44
2023-07-11T07:11:10.822Z,94135.09
2023-07-11T07:12:07.698Z,94170.09
2023-07-11T07:13:04.360Z,94164.16
2023-07-11T07:14:06.045Z,94147.50
2023-07-11T07:15:03.571Z,94165.75
2023-07-11T07:16:01.554Z,94156.78
2023-07-11T07:16:58.171Z,94162.53
2023-07-11T07:17:54.847Z,94170.25
2023-07-11T07:18:51.664Z,94168.00
2023-07-11T07:19:48.310Z,94175.75
2023-07-11T07:21:48.647Z,94168.00
2023-07-11T07:22:45.240Z,94164.03
2023-07-11T07:23:42.170Z,94162.22
2023-07-11T07:24:38.885Z,94167.03
2023-07-11T07:25:35.586Z,94165.59
2023-07-11T07:26:32.274Z,94162.81
2023-07-11T07:27:29.544Z,94152.22
2023-07-11T07:28:28.329Z,94159.22
2023-07-11T07:29:26.378Z,94165.28
2023-07-11T07:30:23.027Z,94171.75
2023-07-11T07:31:20.031Z,94173.69
2023-07-11T07:32:16.941Z,94162.78
2023-07-11T07:33:13.790Z,94175.69
2023-07-11T07:34:10.484Z,94163.56
2023-07-11T07:35:07.364Z,94171.00
2023-07-11T07:36:06.821Z,94172.84
2023-07-11T07:37:03.574Z,94169.69
2023-07-11T07:38:00.313Z,94175.03
2023-07-11T07:38:56.997Z,94166.63
2023-07-11T07:39:54.085Z,94179.25
2023-07-11T07:40:54.135Z,94170.31
2023-07-11T07:41:50.821Z,94166.91
2023-07-11T07:42:47.735Z,94169.63
2023-07-11T07:43:44.582Z,94173.22
2023-07-11T07:44:41.334Z,94172.41
2023-07-11T07:45:38.036Z,94165.47
2023-07-11T07:46:34.730Z,94172.13
2023-07-11T07:47:31.510Z,94171.59
2023-07-11T07:48:28.911Z,94172.56
2023-07-11T07:49:25.539Z,94172.06
2023-07-11T07:50:22.604Z,94157.09
2023-07-11T07:51:20.537Z,94167.31
2023-07-11T07:52:17.223Z,94175.50
2023-07-11T07:53:15.175Z,94170.47
2023-07-11T07:54:11.817Z,94174.81
2023-07-11T07:55:09.084Z,94176.25
2023-07-11T07:56:11.462Z,94184.78
2023-07-11T07:57:07.972Z,94164.88
2023-07-11T07:58:04.603Z,94167.81
2023-07-11T07:59:01.346Z,94173.88
2023-07-11T07:59:57.972Z,94175.88
2023-07-11T08:00:54.611Z,94175.88
2023-07-11T08:01:51.267Z,94180.72
2023-07-11T08:02:48.084Z,94170.19
2023-07-11T08:03:45.469Z,94156.78
2023-07-11T08:04:42.575Z,94170.13
2023-07-11T08:05:39.420Z,94172.84
2023-07-11T08:06:36.651Z,94163.91
2023-07-11T08:07:33.301Z,94167.50
2023-07-11T08:08:30.168Z,94165.34
2023-07-11T08:09:26.928Z,94163.84
2023-07-11T08:10:23.617Z,94136.84
2023-07-11T08:11:22.847Z,94139.66
2023-07-11T08:12:19.539Z,94158.16
2023-07-11T08:13:16.308Z,94165.94
2023-07-11T08:14:13.140Z,94159.66
2023-07-11T08:15:12.684Z,94168.81
2023-07-11T08:16:19.286Z,94156.75
2023-07-11T08:17:26.034Z,94154.91
2023-07-11T08:18:23.289Z,94159.16
2023-07-11T08:19:19.873Z,94160.72
2023-07-11T08:20:16.694Z,94157.16
2023-07-11T08:21:13.389Z,94162.38
2023-07-11T08:22:10.165Z,94158.28
2023-07-11T08:23:06.927Z,94157.97
2023-07-11T08:24:06.268Z,94140.75
2023-07-11T08:25:03.590Z,94169.94
2023-07-11T08:26:00.230Z,94163.97
2023-07-11T08:26:56.999Z,94164.56
2023-07-11T08:27:53.704Z,94163.25
2023-07-11T08:28:51.942Z,94162.56
2023-07-11T08:29:48.684Z,94162.66
2023-07-11T08:30:45.544Z,94167.00
2023-07-11T08:31:42.385Z,94163.25
2023-07-11T08:32:42.203Z,94160.16
2023-07-11T08:33:40.392Z,94168.38
2023-07-11T08:34:37.447Z,94136.56
2023-07-11T08:35:34.277Z,94162.50
2023-07-11T08:36:31.483Z,94158.56
2023-07-11T08:37:28.235Z,94097.28
2023-07-11T08:38:24.909Z,94161.03
2023-07-11T08:39:22.574Z,94156.34
2023-07-11T08:40:31.352Z,94158.69
2023-07-11T08:41:53.333Z,94159.00
2023-07-11T08:42:50.131Z,94159.38
2023-07-11T08:43:49.690Z,94160.06
2023-07-11T08:45:15.665Z,94158.63
2023-07-11T08:46:15.613Z,94154.16
2023-07-11T08:47:25.093Z,94156.31
2023-07-11T08:48:28.356Z,94162.56
2023-07-11T08:49:37.749Z,94130.31
2023-07-11T08:50:41.112Z,94159.59
2023-07-11T08:51:45.005Z,94152.59
2023-07-11T08:52:44.540Z,94158.69
2023-07-11T08:53:46.846Z,94122.34
2023-07-11T08:55:01.657Z,94160.81
2023-07-11T08:56:08.298Z,94163.13
2023-07-11T08:57:05.337Z,94159.25
2023-07-11T08:58:30.428Z,94158.69
2023-07-11T08:59:41.886Z,94154.88
2023-07-11T09:00:39.670Z,94157.25
2023-07-11T09:01:51.135Z,94151.63
2023-07-11T09:03:02.281Z,94150.41
2023-07-11T09:04:00.920Z,94138.03
2023-07-11T09:04:58.549Z,94157.66
2023-07-11T09:06:08.363Z,94155.28
2023-07-11T09:07:22.104Z,94151.69
2023-07-11T09:08:21.125Z,94144.34
2023-07-11T09:09:17.988Z,94146.66
2023-07-11T09:10:46.363Z,94136.47
2023-07-11T09:11:57.808Z,94140.34
2023-07-11T09:13:15.679Z,94141.28
2023-07-11T09:14:37.175Z,94113.56
2023-07-11T09:15:55.431Z,94145.97
2023-07-11T09:17:02.168Z,94144.88
2023-07-11T09:18:44.339Z,94140.22
2023-07-11T09:20:18.269Z,94148.22
2023-07-11T09:21:23.801Z,94141.78
2023-07-11T09:22:35.794Z,94139.22
2023-07-11T09:23:44.787Z,94137.22
2023-07-11T09:25:08.366Z,94139.22
2023-07-11T09:26:09.145Z,94131.06
2023-07-11T09:27:24.218Z,94126.59
2023-07-11T09:28:28.001Z,94137.22
2023-07-11T09:29:24.667Z,94140.59
2023-07-11T09:30:26.375Z,94141.03
2023-07-11T09:31:23.800Z,94140.28
2023-07-11T09:32:21.052Z,94135.78
2023-07-11T09:33:21.894Z,94139.16
2023-07-11T09:34:27.357Z,94133.25
2023-07-11T09:35:31.196Z,94139.50
2023-07-11T09:36:33.518Z,94139.00
2023-07-11T09:37:35.014Z,94128.22
2023-07-11T09:38:44.779Z,94120.06
2023-07-11T09:39:50.533Z,94123.84
2023-07-11T09:40:58.243Z,94133.00
2023-07-11T09:42:17.722Z,94128.00
2023-07-11T09:43:14.732Z,94129.56
2023-07-11T09:44:12.241Z,94127.88
2023-07-11T09:45:14.992Z,94121.69
2023-07-11T09:46:22.134Z,94124.78
2023-07-11T09:47:19.522Z,94108.25
2023-07-11T09:48:32.362Z,94116.94
2023-07-11T09:49:32.289Z,94120.13
2023-07-11T09:50:40.876Z,94113.53
2023-07-11T09:51:54.288Z,94119.31
2023-07-11T09:52:52.757Z,94104.16
2023-07-11T09:53:49.422Z,94119.34
2023-07-11T09:55:50.064Z,94117.06
2023-07-11T09:56:51.645Z,94113.38
2023-07-11T09:57:51.029Z,94116.97
2023-07-11T09:58:51.296Z,94118.56
2023-07-11T10:01:22.783Z,94123.81
2023-07-11T10:02:19.550Z,94090.75
2023-07-11T10:03:18.496Z,94111.13
2023-07-11T10:04:23.569Z,94113.13
2023-07-11T10:05:24.203Z,94110.81
2023-07-11T10:07:35.615Z,94116.38
2023-07-11T10:08:37.344Z,94113.94
2023-07-11T10:09:38.415Z,94109.09
2023-07-11T10:10:35.066Z,94113.13
2023-07-11T10:11:31.795Z,94109.28
2023-07-11T10:12:29.551Z,94111.44
2023-07-11T10:13:37.922Z,94105.28
2023-07-11T10:14:43.603Z,94110.28
2023-07-11T10:15:40.216Z,94105.97
2023-07-11T10:16:36.858Z,94114.28
2023-07-11T10:17:36.172Z,94113.03
2023-07-11T10:18:36.760Z,94106.31
2023-07-11T10:19:34.289Z,94111.97
2023-07-11T10:20:32.316Z,94109.69
2023-07-11T10:21:40.365Z,94117.44
2023-07-11T10:22:38.616Z,94109.97
2023-07-11T10:23:36.796Z,94117.03
2023-07-11T10:24:39.056Z,94093.78
2023-07-11T10:25:35.714Z,94114.25
2023-07-11T10:26:39.558Z,94120.53
2023-07-11T10:27:38.305Z,94117.28
2023-07-11T10:28:39.829Z,94115.03
2023-07-11T10:29:43.631Z,94103.00
2023-07-11T10:30:41.713Z,94109.47
2023-07-11T10:32:06.843Z,94111.69
2023-07-11T10:33:33.576Z,94106.47
2023-07-11T10:34:38.454Z,94105.00
2023-07-11T10:35:38.303Z,94112.22
2023-07-11T10:36:56.450Z,94099.56
2023-07-11T10:37:58.183Z,94105.97
2023-07-11T10:39:00.358Z,94105.84
2023-07-11T10:40:05.505Z,94106.75
2023-07-11T10:41:04.621Z,94104.16
2023-07-11T10:42:13.038Z,94096.06
2023-07-11T10:43:18.582Z,94101.13
2023-07-11T10:44:20.333Z,94072.69
2023-07-11T10:45:24.494Z,94096.97
2023-07-11T10:46:50.329Z,94105.66
2023-07-11T10:47:57.156Z,94098.66
2023-07-11T10:48:58.089Z,94091.50
2023-07-11T10:49:58.054Z,94059.75
2023-07-11T10:51:27.515Z,94082.75
2023-07-11T10:52:28.740Z,94088.03
2023-07-11T10:53:25.348Z,94094.16
2023-07-11T10:54:25.867Z,94086.97
2023-07-11T10:55:31.113Z,94084.41
2023-07-11T10:56:28.145Z,94077.78
2023-07-11T10:57:46.545Z,94057.34
2023-07-11T10:58:43.258Z,94083.13
2023-07-11T10:59:39.942Z,94087.81
2023-07-11T11:00:59.656Z,94068.59
2023-07-11T11:02:22.566Z,94078.19
2023-07-11T11:03:23.329Z,94083.44
2023-07-11T11:04:59.458Z,94078.91
2023-07-11T11:06:12.524Z,94077.84
2023-07-11T11:07:27.449Z,94091.47
2023-07-11T11:08:47.717Z,94088.59
2023-07-11T11:09:55.028Z,94056.25
2023-07-11T11:11:19.324Z,94048.00
2023-07-11T11:12:35.558Z,94075.09
2023-07-11T11:13:38.838Z,94081.00
2023-07-11T11:14:57.089Z,94068.50
2023-07-11T11:15:57.718Z,94079.94
2023-07-11T11:17:27.531Z,94069.53
2023-07-11T11:18:30.122Z,94069.81
2023-07-11T11:19:30.388Z,94065.38
2023-07-11T11:21:18.358Z,94069.78
2023-07-11T11:22:26.574Z,94065.69
2023-07-11T11:23:41.343Z,94074.66
2023-07-11T11:24:58.443Z,94080.59
2023-07-11T11:26:16.170Z,94072.41
2023-07-11T11:27:15.958Z,94065.22
2023-07-11T11:28:18.885Z,94074.69
2023-07-11T11:29:40.830Z,94066.81
2023-07-11T11:30:43.995Z,94067.34
2023-07-11T11:32:01.997Z,94069.84
2023-07-11T11:33:24.944Z,94071.31
2023-07-11T11:34:37.311Z,94066.28
2023-07-11T11:36:10.420Z,94067.06
2023-07-11T11:37:28.693Z,94067.38
2023-07-11T11:38:48.067Z,94065.00
2023-07-11T11:39:48.149Z,94074.84
2023-07-11T11:40:52.182Z,94057.16
2023-07-11T11:41:59.399Z,94065.00
2023-07-11T11:43:02.357Z,94033.63
2023-07-11T11:48:20.929Z,94065.41
2023-07-11T11:51:31.795Z,94057.94
2023-07-11T11:52:44.784Z,94029.97